Time;durP1;ratioP1;P1;durP2;ratioP2;P2;SDS_P1;SDS_P2;PMS_P1;PMS_P2;Temp;Humidity;BMP_temperature;BMP_pressure;BME280_temperature;BME280_humidity;BME280_pressure;Samples;Min_cycle;Max_cycle;Signal;HPM_P1;HPM_P2
2023/10/08 00:00:57;;;;;;;1.70;0.77;;;17.00;99.90;;;;;;4186563;28;20167;-95
2023/10/08 00:02:57;;;;;;;3.00;1.05;;;17.00;99.90;;;;;;4172442;28;20237;-93
2023/10/08 00:05:00;;;;;;;1.98;0.60;;;17.00;99.90;;;;;;4186573;28;20148;-89
2023/10/08 00:07:01;;;;;;;2.95;0.82;;;16.80;99.90;;;;;;4172598;28;20214;-87
2023/10/08 00:09:06;;;;;;;1.80;0.88;;;16.90;99.90;;;;;;4174043;28;20172;-96
2023/10/08 00:11:10;;;;;;;2.85;1.25;;;16.80;99.90;;;;;;4175980;28;20608;-85
2023/10/08 00:13:18;;;;;;;4.65;0.75;;;16.80;99.90;;;;;;4177101;28;20165;-86
2023/10/08 00:15:19;;;;;;;5.25;0.98;;;16.90;99.90;;;;;;4175983;28;20187;-94
2023/10/08 00:17:19;;;;;;;4.07;0.80;;;16.80;99.90;;;;;;4176789;28;20192;-94
2023/10/08 00:19:21;;;;;;;1.85;0.80;;;16.80;99.90;;;;;;4192800;28;20187;-95
2023/10/08 00:21:27;;;;;;;1.55;0.68;;;16.80;99.90;;;;;;4194596;28;20167;-95
2023/10/08 00:23:30;;;;;;;2.03;0.60;;;16.70;99.90;;;;;;4188397;28;20248;-95
2023/10/08 00:25:34;;;;;;;2.78;1.13;;;16.70;99.90;;;;;;4193387;28;20199;-92
2023/10/08 00:27:38;;;;;;;3.35;1.00;;;16.70;99.90;;;;;;4189776;28;20191;-92
2023/10/08 00:29:40;;;;;;;3.10;1.40;;;16.70;99.90;;;;;;4191599;28;20647;-85
2023/10/08 00:31:41;;;;;;;5.80;0.90;;;16.60;99.90;;;;;;4174946;28;20652;-95
2023/10/08 00:33:44;;;;;;;3.28;0.90;;;16.60;99.90;;;;;;4175438;28;20186;-92
2023/10/08 00:35:44;;;;;;;7.35;1.88;;;16.70;99.90;;;;;;4175631;28;20199;-85
2023/10/08 00:37:46;;;;;;;4.13;0.90;;;16.70;99.90;;;;;;4174302;28;20675;-86
2023/10/08 00:39:47;;;;;;;2.72;0.70;;;16.60;99.90;;;;;;4177760;28;20183;-94
2023/10/08 00:41:58;;;;;;;2.58;0.70;;;16.50;99.90;;;;;;4174714;28;20176;-86
2023/10/08 00:43:59;;;;;;;3.58;0.82;;;16.50;99.90;;;;;;4174857;28;20168;-86
2023/10/08 00:48:37;;;;;;;1.67;0.50;;;16.50;99.90;;;;;;4192555;28;20188;-89
2023/10/08 00:50:46;;;;;;;2.03;0.80;;;16.50;99.90;;;;;;4193336;28;20183;-90
2023/10/08 00:53:00;;;;;;;2.17;1.02;;;16.40;99.90;;;;;;4194137;28;20182;-94
2023/10/08 00:57:05;;;;;;;1.30;0.60;;;16.50;99.90;;;;;;4188428;28;20175;-88
2023/10/08 00:59:06;;;;;;;2.10;0.75;;;16.40;99.90;;;;;;4189341;28;20210;-92
2023/10/08 01:01:10;;;;;;;1.90;0.60;;;16.40;99.90;;;;;;4206146;28;20198;-86
2023/10/08 01:03:19;;;;;;;1.13;0.50;;;16.30;99.90;;;;;;4173471;28;20167;-93
2023/10/08 01:05:37;;;;;;;1.45;0.68;;;16.30;99.90;;;;;;4186853;28;20179;-86
2023/10/08 01:07:43;;;;;;;1.90;0.63;;;16.20;99.90;;;;;;4205328;28;20191;-86
2023/10/08 01:09:59;;;;;;;1.23;0.50;;;16.20;99.90;;;;;;4186312;28;20252;-85
2023/10/08 01:12:12;;;;;;;3.55;0.60;;;16.40;99.90;;;;;;4190880;28;20174;-85
2023/10/08 01:14:34;;;;;;;1.85;0.80;;;16.40;99.90;;;;;;4190133;28;20188;-94
2023/10/08 01:16:34;;;;;;;0.60;0.45;;;16.30;99.90;;;;;;4175405;28;20196;-86
2023/10/08 01:18:35;;;;;;;1.92;0.80;;;16.30;99.90;;;;;;4184013;28;20216;-86
2023/10/08 01:20:52;;;;;;;2.10;1.20;;;16.30;99.90;;;;;;4188597;28;20210;-94
2023/10/08 01:22:57;;;;;;;9.32;1.20;;;16.30;99.90;;;;;;4210167;28;20178;-86
2023/10/08 01:25:21;;;;;;;1.25;0.60;;;16.30;99.90;;;;;;4207945;28;20174;-94
2023/10/08 01:27:24;;;;;;;7.38;1.13;;;16.30;99.90;;;;;;4191391;28;20543;-93
2023/10/08 01:29:44;;;;;;;1.08;0.50;;;16.40;99.90;;;;;;4190538;28;20148;-86
2023/10/08 01:31:48;;;;;;;1.42;0.93;;;16.30;99.90;;;;;;4190594;28;20161;-92
2023/10/08 01:33:56;;;;;;;2.88;0.70;;;16.30;99.90;;;;;;4190784;28;20226;-87
2023/10/08 01:36:04;;;;;;;2.80;0.98;;;16.20;99.90;;;;;;4189025;28;20527;-89
2023/10/08 01:38:06;;;;;;;3.88;1.27;;;16.10;99.90;;;;;;4188660;28;20234;-86
2023/10/08 01:40:08;;;;;;;0.90;0.45;;;16.00;99.90;;;;;;4188096;28;20736;-91
2023/10/08 01:42:20;;;;;;;2.05;0.80;;;16.00;99.90;;;;;;4174208;28;20176;-86
2023/10/08 01:44:37;;;;;;;1.60;0.60;;;15.80;99.90;;;;;;4188610;28;20167;-86
2023/10/08 01:46:40;;;;;;;4.50;0.80;;;16.00;99.90;;;;;;4187380;28;20191;-91
2023/10/08 01:48:44;;;;;;;1.67;0.40;;;16.00;99.90;;;;;;4173564;28;20168;-91
2023/10/08 01:50:54;;;;;;;3.33;1.08;;;16.00;99.90;;;;;;4175654;28;20195;-85
2023/10/08 01:53:00;;;;;;;3.20;0.80;;;16.00;99.90;;;;;;4193310;28;20667;-88
2023/10/08 01:55:02;;;;;;;1.95;0.70;;;16.00;99.90;;;;;;4175427;28;20686;-86
2023/10/08 01:57:20;;;;;;;1.70;0.77;;;15.90;99.90;;;;;;4209622;28;20186;-86
2023/10/08 01:59:21;;;;;;;5.28;1.13;;;15.80;99.90;;;;;;4191390;28;20171;-86
2023/10/08 02:01:22;;;;;;;2.40;1.02;;;15.90;99.90;;;;;;4172975;28;20176;-94
2023/10/08 02:03:23;;;;;;;0.95;0.55;;;16.00;99.90;;;;;;4191093;28;20171;-95
2023/10/08 02:05:23;;;;;;;1.58;0.73;;;16.10;99.90;;;;;;4172376;28;20207;-94
2023/10/08 02:07:24;;;;;;;2.88;1.00;;;16.00;99.90;;;;;;4173398;28;20687;-86
2023/10/08 02:09:26;;;;;;;2.28;0.90;;;15.80;99.90;;;;;;4188780;28;20270;-92
2023/10/08 02:11:27;;;;;;;2.22;1.02;;;15.80;99.90;;;;;;4186716;28;20163;-93
2023/10/08 02:13:28;;;;;;;1.88;0.70;;;15.90;99.90;;;;;;4171740;28;20633;-90
2023/10/08 02:15:30;;;;;;;4.13;1.38;;;15.80;99.90;;;;;;4188652;28;20178;-89
2023/10/08 02:17:32;;;;;;;3.80;1.15;;;15.80;99.90;;;;;;4174422;28;20188;-86
2023/10/08 02:19:36;;;;;;;2.75;0.77;;;15.80;99.90;;;;;;4188068;28;20168;-92
2023/10/08 02:21:39;;;;;;;2.10;0.88;;;15.90;99.90;;;;;;4192868;28;20659;-94
2023/10/08 02:23:40;;;;;;;4.88;0.80;;;16.00;99.90;;;;;;4191384;28;20176;-86
2023/10/08 02:25:41;;;;;;;1.95;1.00;;;16.00;99.90;;;;;;4189458;28;20191;-89
2023/10/08 02:27:42;;;;;;;1.25;0.70;;;15.80;99.90;;;;;;4171115;28;20191;-93
2023/10/08 02:29:43;;;;;;;5.50;1.20;;;15.70;99.90;;;;;;4186203;28;20176;-94
2023/10/08 02:31:44;;;;;;;2.70;0.95;;;15.70;99.90;;;;;;4186160;28;20195;-89
2023/10/08 02:33:45;;;;;;;2.33;0.88;;;15.70;99.90;;;;;;4185873;28;20210;-86
2023/10/08 02:35:46;;;;;;;3.22;0.90;;;15.70;99.90;;;;;;4169604;28;20196;-93
2023/10/08 02:37:47;;;;;;;2.58;0.90;;;15.80;99.90;;;;;;4189783;28;20207;-95
2023/10/08 02:39:57;;;;;;;1.88;0.82;;;15.80;99.90;;;;;;4187337;28;20170;-87
2023/10/08 02:42:00;;;;;;;1.52;0.60;;;15.70;99.90;;;;;;4173153;28;20180;-87
2023/10/08 02:44:05;;;;;;;2.33;1.00;;;15.70;99.90;;;;;;4171212;28;20176;-86
2023/10/08 02:46:14;;;;;;;1.73;0.93;;;15.70;99.90;;;;;;4173479;28;20196;-86
2023/10/08 02:48:15;;;;;;;5.35;1.13;;;15.70;99.90;;;;;;4192091;28;20171;-93
2023/10/08 02:50:17;;;;;;;3.95;1.02;;;15.70;99.90;;;;;;4189529;28;20254;-86
2023/10/08 02:52:18;;;;;;;4.85;1.00;;;15.70;99.90;;;;;;4190497;28;20171;-95
2023/10/08 02:54:23;;;;;;;1.38;0.75;;;15.60;99.90;;;;;;4190146;28;20187;-94
2023/10/08 02:56:23;;;;;;;3.92;1.45;;;15.60;99.90;;;;;;4188630;28;20187;-87
2023/10/08 02:58:30;;;;;;;2.70;0.82;;;15.50;99.90;;;;;;4188175;28;20199;-93
2023/10/08 03:00:34;;;;;;;3.70;1.10;;;15.60;99.90;;;;;;4171103;28;20175;-86
2023/10/08 03:02:39;;;;;;;1.67;0.85;;;15.50;99.90;;;;;;4186224;28;20175;-86
2023/10/08 03:04:45;;;;;;;2.80;1.10;;;15.60;99.90;;;;;;4169159;28;20251;-95
2023/10/08 03:06:52;;;;;;;3.47;0.90;;;15.50;99.90;;;;;;4153797;28;20224;-86
2023/10/08 03:08:53;;;;;;;2.85;1.17;;;15.50;99.90;;;;;;4172451;28;20190;-89
2023/10/08 03:11:02;;;;;;;1.63;0.82;;;15.40;99.90;;;;;;4183785;28;20527;-85
2023/10/08 03:13:12;;;;;;;3.00;1.00;;;15.40;99.90;;;;;;4185636;28;20179;-94
2023/10/08 03:15:31;;;;;;;2.67;1.25;;;15.50;99.90;;;;;;4206566;28;20178;-95
2023/10/08 03:17:37;;;;;;;2.15;1.38;;;15.50;99.90;;;;;;4185374;28;20258;-87
2023/10/08 03:19:38;;;;;;;2.38;1.08;;;15.50;99.90;;;;;;4171938;28;20262;-88
2023/10/08 03:23:45;;;;;;;4.97;0.90;;;15.60;99.90;;;;;;4189584;28;20171;-91
2023/10/08 03:25:47;;;;;;;1.25;0.70;;;15.70;99.90;;;;;;4172275;28;20284;-95
2023/10/08 03:27:48;;;;;;;1.75;0.80;;;15.70;99.90;;;;;;4170248;28;20191;-88
2023/10/08 03:29:49;;;;;;;2.45;0.98;;;15.60;99.90;;;;;;4168393;28;20572;-95
2023/10/08 03:31:50;;;;;;;2.28;1.10;;;15.60;99.90;;;;;;4170912;28;20187;-95
2023/10/08 03:33:55;;;;;;;4.32;1.08;;;15.60;99.90;;;;;;4186121;28;20170;-87
2023/10/08 03:35:56;;;;;;;1.73;0.90;;;15.60;99.90;;;;;;4169197;28;20220;-86
2023/10/08 03:38:18;;;;;;;4.47;1.05;;;15.60;99.90;;;;;;4168567;28;20206;-85
2023/10/08 03:40:42;;;;;;;6.50;1.52;;;15.60;99.90;;;;;;4203516;28;20253;-88
2023/10/08 03:42:49;;;;;;;3.20;0.85;;;15.50;99.90;;;;;;4170937;28;20179;-94
2023/10/08 03:45:10;;;;;;;2.55;1.17;;;15.50;99.90;;;;;;4188476;28;20171;-88
2023/10/08 03:47:11;;;;;;;3.67;0.75;;;15.50;99.90;;;;;;4192492;28;20179;-87
2023/10/08 03:51:38;;;;;;;2.63;1.10;;;15.40;99.90;;;;;;4177163;28;20183;-88
2023/10/08 03:53:58;;;;;;;2.28;1.10;;;15.50;99.90;;;;;;4196824;28;20178;-93
2023/10/08 03:56:05;;;;;;;4.68;1.15;;;15.40;99.90;;;;;;4195276;28;20199;-86
2023/10/08 03:58:29;;;;;;;1.75;1.00;;;15.40;99.90;;;;;;4211356;28;20222;-86
2023/10/08 04:00:32;;;;;;;2.30;0.80;;;15.40;99.90;;;;;;4190830;28;20171;-93
2023/10/08 04:02:40;;;;;;;2.40;1.13;;;15.30;99.90;;;;;;4193421;28;20179;-92
2023/10/08 04:04:52;;;;;;;4.63;1.27;;;15.40;99.90;;;;;;4208757;28;20154;-88
2023/10/08 04:06:55;;;;;;;2.55;1.17;;;15.40;99.90;;;;;;4188683;28;20257;-88
2023/10/08 04:11:30;;;;;;;3.97;1.20;;;15.50;99.90;;;;;;4189913;28;20168;-86
2023/10/08 04:13:39;;;;;;;3.63;1.13;;;15.40;99.90;;;;;;4191026;28;20230;-85
2023/10/08 04:15:40;;;;;;;5.70;1.10;;;15.30;99.90;;;;;;4174404;28;20212;-87
2023/10/08 04:17:43;;;;;;;2.35;1.10;;;15.40;99.90;;;;;;4174404;28;20189;-88
2023/10/08 04:19:48;;;;;;;5.18;0.93;;;15.30;99.90;;;;;;4194124;28;20183;-87
2023/10/08 04:21:53;;;;;;;3.10;1.23;;;15.40;99.90;;;;;;4193012;28;20174;-92
2023/10/08 04:23:57;;;;;;;2.75;0.80;;;15.30;99.90;;;;;;4189784;28;20218;-88
2023/10/08 04:25:58;;;;;;;4.57;1.08;;;15.20;99.90;;;;;;4191839;28;20195;-88
2023/10/08 04:28:17;;;;;;;3.05;1.33;;;15.10;99.90;;;;;;4175085;28;20712;-88
2023/10/08 04:30:21;;;;;;;2.40;1.05;;;15.10;99.90;;;;;;4175758;28;20211;-88
2023/10/08 04:32:24;;;;;;;2.78;1.05;;;15.10;99.90;;;;;;4172425;28;20172;-89
2023/10/08 04:34:27;;;;;;;2.35;0.77;;;15.00;99.90;;;;;;4175511;28;20686;-86
2023/10/08 04:36:28;;;;;;;3.22;0.98;;;15.00;99.90;;;;;;4190702;28;20191;-85
2023/10/08 04:38:29;;;;;;;2.72;0.85;;;15.00;99.90;;;;;;4173895;28;20215;-90
2023/10/08 04:40:39;;;;;;;5.22;1.30;;;15.00;99.90;;;;;;4191993;28;20176;-88
2023/10/08 04:42:48;;;;;;;2.88;1.23;;;15.10;99.90;;;;;;4194577;28;20650;-88
2023/10/08 04:45:11;;;;;;;3.22;0.93;;;15.10;99.90;;;;;;4191852;28;20183;-88
2023/10/08 04:47:31;;;;;;;4.35;1.10;;;15.10;99.90;;;;;;4176576;28;20156;-88
2023/10/08 04:49:45;;;;;;;1.85;1.00;;;15.20;99.90;;;;;;4193205;28;20183;-87
2023/10/08 04:51:48;;;;;;;1.17;0.70;;;15.10;99.90;;;;;;4192257;28;20199;-88
2023/10/08 04:53:55;;;;;;;1.65;0.93;;;15.10;99.90;;;;;;4193932;28;20183;-89
2023/10/08 04:56:22;;;;;;;3.13;1.20;;;15.10;99.90;;;;;;4190768;28;20233;-94
2023/10/08 04:58:32;;;;;;;3.17;1.33;;;15.10;99.90;;;;;;4190802;28;20215;-88
2023/10/08 05:00:53;;;;;;;5.53;0.93;;;15.10;99.90;;;;;;4191331;28;20484;-92
2023/10/08 05:03:03;;;;;;;3.13;1.02;;;15.00;99.90;;;;;;4192886;28;20175;-88
2023/10/08 05:09:51;;;;;;;2.58;1.13;;;14.90;99.90;;;;;;4186060;28;20183;-88
2023/10/08 05:12:15;;;;;;;2.22;1.45;;;15.00;99.90;;;;;;4172067;28;20175;-95
2023/10/08 05:16:44;;;;;;;2.15;0.90;;;14.90;99.90;;;;;;4186941;28;20227;-87
2023/10/08 05:19:07;;;;;;;5.00;1.13;;;14.80;99.90;;;;;;4187312;28;20210;-89
2023/10/08 05:21:25;;;;;;;3.45;0.82;;;14.80;99.90;;;;;;4185840;28;20202;-87
2023/10/08 05:26:08;;;;;;;8.27;0.80;;;14.70;99.90;;;;;;4136203;28;20202;-87
2023/10/08 05:28:11;;;;;;;2.50;1.00;;;14.80;99.90;;;;;;4186392;28;20778;-87
2023/10/08 05:30:16;;;;;;;4.13;1.15;;;14.80;99.90;;;;;;4184261;28;20175;-95
2023/10/08 05:34:42;;;;;;;6.03;1.17;;;14.80;99.90;;;;;;4184843;28;20183;-95
2023/10/08 05:39:00;;;;;;;1.73;0.90;;;14.90;99.90;;;;;;4184217;28;20222;-87
2023/10/08 05:43:13;;;;;;;2.22;1.08;;;14.80;99.90;;;;;;4184798;28;20255;-86
2023/10/08 05:45:29;;;;;;;4.88;1.10;;;14.80;99.90;;;;;;4187036;28;20227;-85
2023/10/08 05:54:24;;;;;;;2.30;1.05;;;14.70;99.90;;;;;;4138872;28;20182;-92
2023/10/08 05:56:28;;;;;;;4.32;0.70;;;14.80;99.90;;;;;;4171064;28;20711;-95
2023/10/08 05:58:45;;;;;;;7.90;1.08;;;14.90;99.90;;;;;;4171530;28;20212;-89
2023/10/08 06:03:31;;;;;;;2.72;0.85;;;14.90;99.90;;;;;;4186805;28;20176;-94
2023/10/08 06:07:20;;;;;;;3.10;1.17;;;15.00;99.90;;;;;;4187355;28;20214;-89
2023/10/08 06:09:21;;;;;;;1.08;0.60;;;15.00;99.90;;;;;;4169558;28;20215;-90
2023/10/08 06:14:00;;;;;;;3.42;1.42;;;15.10;99.90;;;;;;4121166;28;20272;-95
2023/10/08 06:18:05;;;;;;;4.22;1.52;;;15.10;99.90;;;;;;4188530;28;20223;-86
2023/10/08 06:20:16;;;;;;;4.85;1.08;;;15.00;99.90;;;;;;4171181;28;20538;-95
2023/10/08 06:22:25;;;;;;;4.95;1.02;;;15.10;99.90;;;;;;4205362;28;20174;-87
2023/10/08 06:24:27;;;;;;;2.67;0.85;;;15.10;99.90;;;;;;4188774;28;20163;-91
2023/10/08 06:26:33;;;;;;;2.10;0.75;;;15.10;99.90;;;;;;4172739;28;20242;-87
2023/10/08 06:28:43;;;;;;;8.50;1.67;;;15.10;99.90;;;;;;4190358;28;20205;-88
2023/10/08 06:30:45;;;;;;;3.10;1.30;;;15.10;99.90;;;;;;4188473;28;20762;-93
2023/10/08 06:32:47;;;;;;;1.42;0.85;;;15.10;99.90;;;;;;4171430;28;20187;-86
2023/10/08 06:34:50;;;;;;;4.03;1.38;;;15.10;99.90;;;;;;4189044;28;20175;-87
2023/10/08 06:36:53;;;;;;;2.53;0.90;;;15.10;99.90;;;;;;4187969;28;20187;-89
2023/10/08 06:38:54;;;;;;;1.75;1.15;;;15.10;99.90;;;;;;4187367;28;20292;-88
2023/10/08 06:40:56;;;;;;;2.13;1.23;;;15.20;99.90;;;;;;4168232;28;20172;-88
2023/10/08 06:42:57;;;;;;;4.18;1.42;;;15.40;99.90;;;;;;4171604;28;20302;-87
2023/10/08 06:44:58;;;;;;;4.22;1.75;;;15.60;99.90;;;;;;4188139;28;20202;-95
2023/10/08 06:46:59;;;;;;;4.28;1.73;;;15.60;99.90;;;;;;4170586;28;20203;-91
2023/10/08 06:49:02;;;;;;;7.22;1.30;;;15.70;99.90;;;;;;4170444;28;20236;-95
2023/10/08 06:51:18;;;;;;;4.30;0.85;;;15.90;99.90;;;;;;4192415;28;20262;-87
2023/10/08 06:53:22;;;;;;;2.00;1.00;;;16.00;99.90;;;;;;4175645;28;20172;-86
2023/10/08 06:55:26;;;;;;;2.28;1.30;;;15.90;99.90;;;;;;4187961;28;20195;-87
2023/10/08 06:57:27;;;;;;;1.55;0.73;;;16.00;99.90;;;;;;4188464;28;20174;-89
2023/10/08 06:59:31;;;;;;;1.30;0.80;;;16.00;99.90;;;;;;4172119;28;20176;-86
2023/10/08 07:01:45;;;;;;;2.95;1.08;;;16.00;99.90;;;;;;4188377;28;20183;-90
2023/10/08 07:03:49;;;;;;;2.47;1.35;;;16.00;99.90;;;;;;4190086;28;20195;-87
2023/10/08 07:05:57;;;;;;;2.60;1.05;;;16.10;99.90;;;;;;4183496;28;20187;-94
2023/10/08 07:07:58;;;;;;;3.67;1.45;;;16.00;99.90;;;;;;4185326;28;20655;-93
2023/10/08 07:09:59;;;;;;;2.55;1.10;;;16.10;99.90;;;;;;4169364;28;20202;-86
2023/10/08 07:12:05;;;;;;;3.33;1.17;;;16.20;99.90;;;;;;4186311;28;20270;-87
2023/10/08 07:14:06;;;;;;;3.28;1.52;;;16.20;99.90;;;;;;4168063;28;20238;-86
2023/10/08 07:16:11;;;;;;;4.03;1.30;;;16.30;99.90;;;;;;4168729;28;20227;-94
2023/10/08 07:18:21;;;;;;;3.50;1.25;;;16.50;99.90;;;;;;4186678;28;20673;-95
2023/10/08 07:20:22;;;;;;;3.28;1.13;;;16.70;99.90;;;;;;4190470;28;20171;-93
2023/10/08 07:22:28;;;;;;;2.17;1.20;;;16.80;99.90;;;;;;4191951;28;20324;-93
2023/10/08 07:24:30;;;;;;;16.52;2.47;;;17.10;99.90;;;;;;4191618;28;20171;-89
2023/10/08 07:28:51;;;;;;;2.33;1.10;;;17.50;99.90;;;;;;4207892;28;20285;-93
2023/10/08 07:30:53;;;;;;;5.45;1.00;;;17.70;99.90;;;;;;4206672;28;20158;-87
2023/10/08 07:32:58;;;;;;;3.60;1.20;;;17.90;99.90;;;;;;4211386;28;20182;-87
2023/10/08 07:35:12;;;;;;;3.85;1.30;;;17.90;99.90;;;;;;4195767;28;20172;-88
2023/10/08 07:37:19;;;;;;;1.63;0.65;;;18.10;99.90;;;;;;4205282;28;20221;-89
2023/10/08 07:39:46;;;;;;;2.67;1.10;;;18.00;99.90;;;;;;4187974;28;20289;-87
2023/10/08 07:41:49;;;;;;;1.15;0.90;;;17.90;99.90;;;;;;4221439;28;20183;-89
2023/10/08 07:43:55;;;;;;;4.07;1.17;;;17.80;99.90;;;;;;4191350;28;20174;-93
2023/10/08 07:45:56;;;;;;;2.63;1.10;;;17.90;99.90;;;;;;4206191;28;20201;-87
2023/10/08 07:47:58;;;;;;;4.72;1.58;;;17.90;99.90;;;;;;4206190;28;20174;-94
2023/10/08 07:49:59;;;;;;;4.32;1.63;;;17.80;99.90;;;;;;4208253;28;20554;-95
2023/10/08 07:51:59;;;;;;;9.75;1.00;;;17.80;99.90;;;;;;4208005;28;20217;-94
2023/10/08 07:54:00;;;;;;;2.38;1.20;;;17.90;99.90;;;;;;4206866;28;20175;-94
2023/10/08 07:56:06;;;;;;;8.82;1.15;;;17.80;99.90;;;;;;4186562;28;20187;-87
2023/10/08 07:58:10;;;;;;;2.90;1.00;;;17.90;99.90;;;;;;4207401;28;20218;-92
2023/10/08 08:00:30;;;;;;;2.13;1.10;;;18.00;99.90;;;;;;4191230;28;20167;-87
2023/10/08 08:02:31;;;;;;;1.83;1.05;;;18.00;99.90;;;;;;4208994;28;20224;-89
2023/10/08 08:04:33;;;;;;;2.70;1.10;;;18.40;99.90;;;;;;4208197;28;20167;-88
2023/10/08 08:06:33;;;;;;;3.45;1.40;;;18.90;99.90;;;;;;4208434;28;20210;-87
2023/10/08 08:08:35;;;;;;;5.20;1.38;;;19.40;99.90;;;;;;4204577;28;20163;-88
2023/10/08 08:10:37;;;;;;;2.22;1.10;;;19.70;99.90;;;;;;4187107;28;20180;-87
2023/10/08 08:12:38;;;;;;;11.55;1.65;;;20.00;99.90;;;;;;4186489;28;20168;-95
2023/10/08 08:14:41;;;;;;;2.83;1.08;;;19.70;99.90;;;;;;4203514;28;20634;-94
2023/10/08 08:16:48;;;;;;;4.78;1.33;;;19.60;99.90;;;;;;4184487;28;20312;-95
2023/10/08 08:18:51;;;;;;;2.63;0.90;;;19.60;99.90;;;;;;4188508;28;20222;-94
2023/10/08 08:20:52;;;;;;;2.95;1.23;;;19.70;99.90;;;;;;4206834;28;20174;-94
2023/10/08 08:22:56;;;;;;;4.05;1.25;;;19.80;99.90;;;;;;4189013;28;20172;-93
2023/10/08 08:25:15;;;;;;;4.57;1.33;;;19.90;99.90;;;;;;4203968;28;20209;-88
2023/10/08 08:27:24;;;;;;;6.72;1.55;;;20.20;99.90;;;;;;4203852;28;20190;-87
2023/10/08 08:29:24;;;;;;;3.00;1.33;;;20.50;99.90;;;;;;4190294;28;20175;-88
2023/10/08 08:31:26;;;;;;;4.53;1.33;;;20.70;99.90;;;;;;4205132;28;20270;-87
2023/10/08 08:33:35;;;;;;;4.22;1.70;;;21.20;99.90;;;;;;4186392;28;20171;-92
2023/10/08 08:35:35;;;;;;;3.28;1.20;;;21.40;99.90;;;;;;4192886;28;20594;-93
2023/10/08 08:37:38;;;;;;;4.20;1.55;;;21.80;99.90;;;;;;4188284;28;20221;-87
2023/10/08 08:39:41;;;;;;;3.83;1.70;;;22.00;99.90;;;;;;4200215;28;20500;-94
2023/10/08 08:41:41;;;;;;;2.33;1.08;;;22.30;99.90;;;;;;4183975;28;20170;-88
2023/10/08 08:43:48;;;;;;;5.10;1.10;;;22.30;99.90;;;;;;4187706;28;20217;-88
2023/10/08 08:45:49;;;;;;;3.50;1.15;;;22.60;99.90;;;;;;4186875;28;20194;-94
2023/10/08 08:47:51;;;;;;;4.00;1.27;;;23.30;99.90;;;;;;4205302;28;20680;-88
2023/10/08 08:49:55;;;;;;;2.92;1.27;;;23.60;99.90;;;;;;4202052;28;20170;-94
2023/10/08 08:52:00;;;;;;;3.20;1.52;;;23.60;99.90;;;;;;4188368;28;20175;-89
2023/10/08 08:54:08;;;;;;;3.97;1.45;;;23.70;99.90;;;;;;4201931;28;20180;-88
2023/10/08 08:56:09;;;;;;;2.65;1.08;;;23.70;99.90;;;;;;4188540;28;20194;-88
2023/10/08 08:58:11;;;;;;;6.32;1.10;;;24.40;99.90;;;;;;4188928;28;20274;-94
2023/10/08 09:00:14;;;;;;;2.17;1.13;;;24.50;99.90;;;;;;4204481;28;20178;-88
2023/10/08 09:02:15;;;;;;;3.85;1.42;;;24.70;99.90;;;;;;4207075;28;20177;-88
2023/10/08 09:04:17;;;;;;;5.38;1.48;;;24.80;99.90;;;;;;4185804;28;20179;-88
2023/10/08 09:06:18;;;;;;;3.65;1.48;;;24.50;99.90;;;;;;4202487;28;20217;-93
2023/10/08 09:08:18;;;;;;;6.28;1.02;;;24.80;99.90;;;;;;4204684;28;20242;-95
2023/10/08 09:10:19;;;;;;;1.98;1.20;;;24.30;99.90;;;;;;4190740;28;20171;-88
2023/10/08 09:12:21;;;;;;;8.15;2.00;;;24.00;99.90;;;;;;4218129;28;20707;-93
2023/10/08 09:14:25;;;;;;;3.97;1.33;;;23.90;99.90;;;;;;4205738;28;20167;-88
2023/10/08 09:16:27;;;;;;;3.85;1.50;;;24.00;99.90;;;;;;4203890;28;20199;-87
2023/10/08 09:18:28;;;;;;;7.78;1.25;;;24.10;99.90;;;;;;4184252;28;20207;-94
2023/10/08 09:20:31;;;;;;;2.42;1.13;;;24.40;99.90;;;;;;4204357;28;20190;-92
2023/10/08 09:22:32;;;;;;;3.65;1.40;;;24.40;99.90;;;;;;4186474;28;20167;-91
2023/10/08 09:24:36;;;;;;;5.22;0.93;;;24.70;99.90;;;;;;4206686;28;20167;-88
2023/10/08 09:26:37;;;;;;;9.32;1.75;;;25.00;99.90;;;;;;4205529;28;20213;-89
2023/10/08 09:28:41;;;;;;;2.95;1.55;;;25.00;99.90;;;;;;4203248;28;20659;-87
2023/10/08 09:30:44;;;;;;;3.35;1.52;;;24.90;99.90;;;;;;4188108;28;20264;-88
2023/10/08 09:32:49;;;;;;;2.00;1.40;;;25.00;99.90;;;;;;4204486;28;20194;-87
2023/10/08 09:34:52;;;;;;;4.47;1.20;;;24.60;99.90;;;;;;4203512;28;20643;-92
2023/10/08 09:36:53;;;;;;;5.85;1.75;;;24.30;99.90;;;;;;4203680;28;20209;-87
2023/10/08 09:38:55;;;;;;;2.63;1.25;;;23.90;99.90;;;;;;4188348;28;20227;-88
2023/10/08 09:40:58;;;;;;;8.70;2.17;;;23.40;99.90;;;;;;4186317;28;20186;-87
2023/10/08 09:42:59;;;;;;;3.53;1.30;;;23.10;99.90;;;;;;4204562;28;20163;-94
2023/10/08 09:45:05;;;;;;;2.40;1.40;;;22.50;99.90;;;;;;4185805;28;20179;-89
2023/10/08 09:47:10;;;;;;;7.25;2.33;;;22.60;99.90;;;;;;4187226;28;20175;-91
2023/10/08 09:49:12;;;;;;;4.25;1.55;;;22.90;99.90;;;;;;4202182;28;20175;-86
2023/10/08 09:51:14;;;;;;;9.25;1.83;;;22.80;99.90;;;;;;4186138;28;20221;-87
2023/10/08 09:53:19;;;;;;;3.88;1.25;;;22.50;99.90;;;;;;4203329;28;20175;-87
2023/10/08 09:55:20;;;;;;;6.00;1.70;;;22.50;99.90;;;;;;4183208;28;20686;-87
2023/10/08 09:57:26;;;;;;;4.20;1.25;;;22.00;99.90;;;;;;4184588;28;20187;-88
2023/10/08 09:59:29;;;;;;;5.32;1.92;;;21.60;99.90;;;;;;4189471;28;20199;-87
2023/10/08 10:01:32;;;;;;;3.25;1.58;;;21.80;99.90;;;;;;4188721;28;20168;-87
2023/10/08 10:03:36;;;;;;;6.72;2.17;;;21.80;99.90;;;;;;4184788;28;20628;-92
2023/10/08 10:05:37;;;;;;;9.70;1.70;;;21.80;99.90;;;;;;4185231;28;20171;-87
2023/10/08 10:07:43;;;;;;;8.13;2.25;;;21.60;99.90;;;;;;4185130;28;20206;-87
2023/10/08 10:09:46;;;;;;;7.20;1.60;;;21.60;99.90;;;;;;4216856;28;20215;-87
2023/10/08 10:11:52;;;;;;;4.40;1.50;;;21.30;99.90;;;;;;4184898;28;20532;-87
2023/10/08 10:14:02;;;;;;;5.32;1.67;;;21.20;99.90;;;;;;4200397;28;20167;-86
2023/10/08 10:16:07;;;;;;;7.68;1.88;;;21.30;99.90;;;;;;4169237;28;20188;-95
2023/10/08 10:18:10;;;;;;;8.40;2.22;;;21.40;99.90;;;;;;4199766;28;20206;-93
2023/10/08 10:20:13;;;;;;;4.05;1.75;;;21.40;99.90;;;;;;4217913;28;20656;-89
2023/10/08 10:22:27;;;;;;;8.23;1.88;;;21.80;99.90;;;;;;4201930;28;20250;-93
2023/10/08 10:24:37;;;;;;;4.80;1.73;;;22.10;99.90;;;;;;4198550;28;20167;-87
2023/10/08 10:26:40;;;;;;;10.40;2.50;;;22.00;99.90;;;;;;4182482;28;20199;-88
2023/10/08 10:28:45;;;;;;;6.65;1.77;;;21.80;99.90;;;;;;4202086;28;20182;-87
2023/10/08 10:30:48;;;;;;;4.03;1.88;;;21.80;99.90;;;;;;4200333;28;20182;-87
2023/10/08 10:32:52;;;;;;;6.50;1.80;;;21.80;99.90;;;;;;4183397;28;20167;-88
2023/10/08 10:34:53;;;;;;;5.47;2.05;;;21.90;99.90;;;;;;4198193;28;20190;-88
2023/10/08 10:37:08;;;;;;;8.40;2.13;;;21.90;99.90;;;;;;4181777;28;20683;-87
2023/10/08 10:39:26;;;;;;;6.90;2.13;;;21.80;99.90;;;;;;4183606;28;20309;-94
2023/10/08 10:41:27;;;;;;;6.40;1.95;;;21.80;99.90;;;;;;4201907;28;20159;-87
2023/10/08 10:43:33;;;;;;;7.65;1.85;;;21.90;99.90;;;;;;4183722;28;20168;-87
2023/10/08 10:45:40;;;;;;;3.92;1.73;;;22.20;99.90;;;;;;4199018;28;20575;-87
2023/10/08 10:47:45;;;;;;;6.15;1.60;;;22.20;99.90;;;;;;4181274;28;20179;-88
2023/10/08 10:49:53;;;;;;;4.85;1.67;;;22.40;99.90;;;;;;4181436;28;20167;-90
2023/10/08 10:51:59;;;;;;;6.10;1.60;;;22.40;99.90;;;;;;4198062;28;20185;-87
2023/10/08 10:54:19;;;;;;;6.93;2.00;;;22.50;99.90;;;;;;4197936;28;20162;-94
2023/10/08 10:56:29;;;;;;;5.95;1.83;;;22.50;99.90;;;;;;4183916;28;20195;-93
2023/10/08 10:58:38;;;;;;;4.78;1.77;;;22.50;99.90;;;;;;4202392;28;20260;-87
2023/10/08 11:02:48;;;;;;;6.10;2.45;;;22.50;99.90;;;;;;4208754;28;20165;-87
2023/10/08 11:04:49;;;;;;;5.15;1.60;;;22.30;99.90;;;;;;4186829;28;20527;-94
2023/10/08 11:06:56;;;;;;;4.30;1.92;;;22.30;99.90;;;;;;4181993;28;20183;-95
2023/10/08 11:08:58;;;;;;;5.70;1.65;;;22.20;99.90;;;;;;4181706;28;20282;-94
2023/10/08 11:10:58;;;;;;;12.13;2.53;;;22.20;99.90;;;;;;4180804;28;20658;-86
2023/10/08 11:13:01;;;;;;;4.07;1.85;;;22.50;99.90;;;;;;4198026;28;20174;-95
2023/10/08 11:15:05;;;;;;;4.60;2.20;;;22.80;99.90;;;;;;4181298;28;20171;-88
2023/10/08 11:17:12;;;;;;;8.20;1.80;;;22.50;99.90;;;;;;4181300;28;20174;-88
2023/10/08 11:19:15;;;;;;;7.65;2.35;;;22.40;99.90;;;;;;4197814;28;20206;-86
2023/10/08 11:21:22;;;;;;;5.93;1.98;;;22.40;99.90;;;;;;4198003;28;20163;-95
2023/10/08 11:23:36;;;;;;;3.85;1.90;;;22.40;99.90;;;;;;4197743;28;20183;-87
2023/10/08 11:25:37;;;;;;;9.00;3.17;;;22.40;99.90;;;;;;4180869;28;20191;-87
2023/10/08 11:27:38;;;;;;;3.45;1.52;;;22.50;99.90;;;;;;4181132;28;20520;-95
2023/10/08 11:29:40;;;;;;;6.03;2.17;;;22.70;99.90;;;;;;4197571;28;20266;-95
2023/10/08 11:31:42;;;;;;;7.22;2.47;;;22.60;99.90;;;;;;4180629;28;20171;-87
2023/10/08 11:33:56;;;;;;;3.67;1.48;;;22.60;99.90;;;;;;4180593;28;20178;-88
2023/10/08 11:36:07;;;;;;;6.18;2.10;;;22.80;99.90;;;;;;4197875;28;20210;-88
2023/10/08 11:38:14;;;;;;;4.85;2.13;;;22.90;99.90;;;;;;4197649;28;20313;-96
2023/10/08 11:40:28;;;;;;;4.05;1.70;;;23.00;99.90;;;;;;4181990;28;20202;-87